sensor_id;sensor_type;location;lat;lon;timestamp;P1;durP1;ratioP1;P2;durP2;ratioP2
22652;SDS011;11493;43.344;26.226;2023-06-10T00:01:41;10.20;;;3.65;;
22652;SDS011;11493;43.344;26.226;2023-06-10T00:04:09;12.35;;;3.92;;
22652;SDS011;11493;43.344;26.226;2023-06-10T00:06:36;9.60;;;3.60;;
22652;SDS011;11493;43.344;26.226;2023-06-10T00:09:07;9.43;;;4.00;;
22652;SDS011;11493;43.344;26.226;2023-06-10T00:11:41;11.32;;;3.50;;
22652;SDS011;11493;43.344;26.226;2023-06-10T00:14:09;7.45;;;3.75;;
22652;SDS011;11493;43.344;26.226;2023-06-10T00:16:36;4.20;;;3.80;;
22652;SDS011;11493;43.344;26.226;2023-06-10T00:19:03;6.75;;;4.55;;
22652;SDS011;11493;43.344;26.226;2023-06-10T00:21:31;3.83;;;3.40;;
22652;SDS011;11493;43.344;26.226;2023-06-10T00:24:07;7.38;;;3.38;;
22652;SDS011;11493;43.344;26.226;2023-06-10T00:26:39;9.07;;;3.65;;
22652;SDS011;11493;43.344;26.226;2023-06-10T00:29:07;7.30;;;3.67;;
22652;SDS011;11493;43.344;26.226;2023-06-10T00:31:35;9.15;;;3.70;;
22652;SDS011;11493;43.344;26.226;2023-06-10T00:34:06;8.80;;;4.93;;
22652;SDS011;11493;43.344;26.226;2023-06-10T00:36:33;11.60;;;4.05;;
22652;SDS011;11493;43.344;26.226;2023-06-10T00:39:02;13.65;;;4.05;;
22652;SDS011;11493;43.344;26.226;2023-06-10T00:41:31;6.93;;;3.58;;
22652;SDS011;11493;43.344;26.226;2023-06-10T00:44:00;7.45;;;3.83;;
22652;SDS011;11493;43.344;26.226;2023-06-10T00:46:27;10.88;;;4.13;;
22652;SDS011;11493;43.344;26.226;2023-06-10T00:48:55;10.95;;;3.65;;
22652;SDS011;11493;43.344;26.226;2023-06-10T00:51:22;9.52;;;4.03;;
22652;SDS011;11493;43.344;26.226;2023-06-10T00:53:50;10.80;;;4.65;;
22652;SDS011;11493;43.344;26.226;2023-06-10T00:56:19;9.20;;;3.83;;
22652;SDS011;11493;43.344;26.226;2023-06-10T00:58:47;5.70;;;3.40;;
22652;SDS011;11493;43.344;26.226;2023-06-10T01:01:14;8.63;;;3.55;;
22652;SDS011;11493;43.344;26.226;2023-06-10T01:03:41;8.20;;;3.65;;
22652;SDS011;11493;43.344;26.226;2023-06-10T01:06:14;8.93;;;3.30;;
22652;SDS011;11493;43.344;26.226;2023-06-10T01:11:34;9.43;;;3.40;;
22652;SDS011;11493;43.344;26.226;2023-06-10T01:14:07;9.68;;;3.22;;
22652;SDS011;11493;43.344;26.226;2023-06-10T01:16:37;15.93;;;3.67;;
22652;SDS011;11493;43.344;26.226;2023-06-10T01:21:37;7.88;;;3.22;;
22652;SDS011;11493;43.344;26.226;2023-06-10T01:24:09;10.48;;;3.90;;
22652;SDS011;11493;43.344;26.226;2023-06-10T01:26:38;8.18;;;3.38;;
22652;SDS011;11493;43.344;26.226;2023-06-10T01:29:09;14.68;;;3.63;;
22652;SDS011;11493;43.344;26.226;2023-06-10T01:32:03;13.25;;;4.15;;
22652;SDS011;11493;43.344;26.226;2023-06-10T01:34:33;8.05;;;3.40;;
22652;SDS011;11493;43.344;26.226;2023-06-10T01:37:04;5.53;;;2.88;;
22652;SDS011;11493;43.344;26.226;2023-06-10T01:39:32;18.50;;;3.75;;
22652;SDS011;11493;43.344;26.226;2023-06-10T01:42:00;15.15;;;4.20;;
22652;SDS011;11493;43.344;26.226;2023-06-10T01:44:29;13.23;;;3.88;;
22652;SDS011;11493;43.344;26.226;2023-06-10T01:46:56;13.00;;;3.13;;
22652;SDS011;11493;43.344;26.226;2023-06-10T01:49:23;14.93;;;3.83;;
22652;SDS011;11493;43.344;26.226;2023-06-10T01:51:51;5.95;;;3.30;;
22652;SDS011;11493;43.344;26.226;2023-06-10T01:54:18;3.88;;;3.40;;
22652;SDS011;11493;43.344;26.226;2023-06-10T01:56:45;8.07;;;3.63;;
22652;SDS011;11493;43.344;26.226;2023-06-10T01:59:12;18.00;;;3.95;;
22652;SDS011;11493;43.344;26.226;2023-06-10T02:01:39;7.75;;;3.90;;
22652;SDS011;11493;43.344;26.226;2023-06-10T02:04:09;8.45;;;3.30;;
22652;SDS011;11493;43.344;26.226;2023-06-10T02:06:36;10.60;;;3.50;;
22652;SDS011;11493;43.344;26.226;2023-06-10T02:09:04;12.77;;;3.70;;
22652;SDS011;11493;43.344;26.226;2023-06-10T02:11:31;12.02;;;3.83;;
22652;SDS011;11493;43.344;26.226;2023-06-10T02:13:58;17.17;;;3.70;;
22652;SDS011;11493;43.344;26.226;2023-06-10T02:16:25;7.20;;;3.42;;
22652;SDS011;11493;43.344;26.226;2023-06-10T02:18:54;15.82;;;3.63;;
22652;SDS011;11493;43.344;26.226;2023-06-10T02:21:22;5.60;;;4.30;;
22652;SDS011;11493;43.344;26.226;2023-06-10T02:23:49;9.73;;;3.67;;
22652;SDS011;11493;43.344;26.226;2023-06-10T02:26:16;8.48;;;3.78;;
22652;SDS011;11493;43.344;26.226;2023-06-10T02:28:43;9.48;;;4.00;;
22652;SDS011;11493;43.344;26.226;2023-06-10T02:31:12;11.88;;;4.10;;
22652;SDS011;11493;43.344;26.226;2023-06-10T02:33:39;16.75;;;4.47;;
22652;SDS011;11493;43.344;26.226;2023-06-10T02:36:07;11.07;;;4.38;;
22652;SDS011;11493;43.344;26.226;2023-06-10T02:38:34;10.95;;;4.00;;
22652;SDS011;11493;43.344;26.226;2023-06-10T02:41:01;10.30;;;3.80;;
22652;SDS011;11493;43.344;26.226;2023-06-10T02:43:28;11.45;;;4.18;;
22652;SDS011;11493;43.344;26.226;2023-06-10T02:45:56;8.43;;;4.40;;
22652;SDS011;11493;43.344;26.226;2023-06-10T02:48:24;12.95;;;4.40;;
22652;SDS011;11493;43.344;26.226;2023-06-10T02:50:51;15.27;;;4.57;;
22652;SDS011;11493;43.344;26.226;2023-06-10T02:53:38;14.63;;;4.15;;
22652;SDS011;11493;43.344;26.226;2023-06-10T02:56:09;13.23;;;3.97;;
22652;SDS011;11493;43.344;26.226;2023-06-10T02:58:36;15.32;;;4.15;;
22652;SDS011;11493;43.344;26.226;2023-06-10T03:01:04;6.50;;;3.72;;
22652;SDS011;11493;43.344;26.226;2023-06-10T03:03:40;10.93;;;4.20;;
22652;SDS011;11493;43.344;26.226;2023-06-10T03:08:39;16.85;;;4.13;;
22652;SDS011;11493;43.344;26.226;2023-06-10T03:11:11;11.00;;;4.05;;
22652;SDS011;11493;43.344;26.226;2023-06-10T03:13:39;24.35;;;4.82;;
22652;SDS011;11493;43.344;26.226;2023-06-10T03:16:10;8.88;;;3.58;;
22652;SDS011;11493;43.344;26.226;2023-06-10T03:18:39;16.92;;;4.53;;
22652;SDS011;11493;43.344;26.226;2023-06-10T03:21:08;20.52;;;4.63;;
22652;SDS011;11493;43.344;26.226;2023-06-10T03:23:36;20.58;;;4.60;;
22652;SDS011;11493;43.344;26.226;2023-06-10T03:26:04;20.60;;;4.90;;
22652;SDS011;11493;43.344;26.226;2023-06-10T03:28:36;13.60;;;3.58;;
22652;SDS011;11493;43.344;26.226;2023-06-10T03:31:03;24.15;;;4.10;;
22652;SDS011;11493;43.344;26.226;2023-06-10T03:33:31;15.73;;;4.28;;
22652;SDS011;11493;43.344;26.226;2023-06-10T03:35:59;15.70;;;4.30;;
22652;SDS011;11493;43.344;26.226;2023-06-10T03:38:27;13.95;;;3.95;;
22652;SDS011;11493;43.344;26.226;2023-06-10T03:40:54;9.85;;;4.07;;
22652;SDS011;11493;43.344;26.226;2023-06-10T03:43:22;7.72;;;4.03;;
22652;SDS011;11493;43.344;26.226;2023-06-10T03:45:50;10.70;;;4.28;;
22652;SDS011;11493;43.344;26.226;2023-06-10T03:48:18;9.73;;;3.90;;
22652;SDS011;11493;43.344;26.226;2023-06-10T03:50:49;9.63;;;3.95;;
22652;SDS011;11493;43.344;26.226;2023-06-10T03:53:20;14.43;;;4.10;;
22652;SDS011;11493;43.344;26.226;2023-06-10T03:55:48;9.85;;;4.00;;
22652;SDS011;11493;43.344;26.226;2023-06-10T03:58:18;7.50;;;3.40;;
22652;SDS011;11493;43.344;26.226;2023-06-10T04:00:46;8.30;;;4.55;;
22652;SDS011;11493;43.344;26.226;2023-06-10T04:03:13;11.63;;;4.88;;
22652;SDS011;11493;43.344;26.226;2023-06-10T04:05:45;7.90;;;4.05;;
22652;SDS011;11493;43.344;26.226;2023-06-10T04:08:12;18.25;;;4.72;;
22652;SDS011;11493;43.344;26.226;2023-06-10T04:10:39;7.55;;;3.88;;
22652;SDS011;11493;43.344;26.226;2023-06-10T04:13:07;12.45;;;4.20;;
22652;SDS011;11493;43.344;26.226;2023-06-10T04:15:39;21.27;;;5.10;;
22652;SDS011;11493;43.344;26.226;2023-06-10T04:18:11;8.30;;;3.95;;
22652;SDS011;11493;43.344;26.226;2023-06-10T04:20:38;13.60;;;4.75;;
22652;SDS011;11493;43.344;26.226;2023-06-10T04:23:05;6.97;;;4.20;;
22652;SDS011;11493;43.344;26.226;2023-06-10T04:25:33;15.23;;;4.82;;
22652;SDS011;11493;43.344;26.226;2023-06-10T04:28:00;13.85;;;4.85;;
22652;SDS011;11493;43.344;26.226;2023-06-10T04:30:27;7.18;;;4.65;;
22652;SDS011;11493;43.344;26.226;2023-06-10T04:32:55;10.05;;;4.82;;
22652;SDS011;11493;43.344;26.226;2023-06-10T04:35:22;12.60;;;4.90;;
22652;SDS011;11493;43.344;26.226;2023-06-10T04:37:49;8.90;;;4.57;;
22652;SDS011;11493;43.344;26.226;2023-06-10T04:40:16;10.20;;;5.25;;
22652;SDS011;11493;43.344;26.226;2023-06-10T04:42:45;9.68;;;5.15;;
22652;SDS011;11493;43.344;26.226;2023-06-10T04:45:12;10.85;;;4.75;;
22652;SDS011;11493;43.344;26.226;2023-06-10T04:47:40;13.95;;;4.53;;
22652;SDS011;11493;43.344;26.226;2023-06-10T04:50:07;11.20;;;4.57;;
22652;SDS011;11493;43.344;26.226;2023-06-10T04:52:34;11.88;;;4.75;;
22652;SDS011;11493;43.344;26.226;2023-06-10T04:55:01;7.50;;;4.28;;
22652;SDS011;11493;43.344;26.226;2023-06-10T04:57:29;14.75;;;4.70;;
22652;SDS011;11493;43.344;26.226;2023-06-10T04:59:56;6.07;;;4.18;;
22652;SDS011;11493;43.344;26.226;2023-06-10T05:02:23;12.13;;;5.65;;
22652;SDS011;11493;43.344;26.226;2023-06-10T05:04:50;6.32;;;4.28;;
22652;SDS011;11493;43.344;26.226;2023-06-10T05:07:17;10.50;;;4.50;;
22652;SDS011;11493;43.344;26.226;2023-06-10T05:09:44;6.18;;;3.75;;
22652;SDS011;11493;43.344;26.226;2023-06-10T05:12:11;10.27;;;3.78;;
22652;SDS011;11493;43.344;26.226;2023-06-10T05:14:38;6.15;;;3.67;;
22652;SDS011;11493;43.344;26.226;2023-06-10T05:17:05;10.85;;;3.17;;
22652;SDS011;11493;43.344;26.226;2023-06-10T05:19:32;8.70;;;3.58;;
22652;SDS011;11493;43.344;26.226;2023-06-10T05:21:59;7.85;;;3.35;;
22652;SDS011;11493;43.344;26.226;2023-06-10T05:24:26;4.28;;;3.33;;
22652;SDS011;11493;43.344;26.226;2023-06-10T05:26:54;5.25;;;3.10;;
22652;SDS011;11493;43.344;26.226;2023-06-10T05:29:21;6.25;;;2.63;;
22652;SDS011;11493;43.344;26.226;2023-06-10T05:31:49;4.18;;;3.08;;
22652;SDS011;11493;43.344;26.226;2023-06-10T05:34:16;6.13;;;3.03;;
22652;SDS011;11493;43.344;26.226;2023-06-10T05:36:44;7.35;;;3.33;;
22652;SDS011;11493;43.344;26.226;2023-06-10T05:39:11;8.68;;;3.72;;
22652;SDS011;11493;43.344;26.226;2023-06-10T05:41:38;6.35;;;3.38;;
22652;SDS011;11493;43.344;26.226;2023-06-10T05:44:05;3.95;;;3.35;;
22652;SDS011;11493;43.344;26.226;2023-06-10T05:46:32;4.03;;;3.05;;
22652;SDS011;11493;43.344;26.226;2023-06-10T05:49:02;4.63;;;3.03;;
22652;SDS011;11493;43.344;26.226;2023-06-10T05:51:29;6.43;;;3.20;;
22652;SDS011;11493;43.344;26.226;2023-06-10T05:53:56;5.05;;;2.83;;
22652;SDS011;11493;43.344;26.226;2023-06-10T05:56:23;5.07;;;2.72;;
22652;SDS011;11493;43.344;26.226;2023-06-10T05:58:52;9.93;;;3.22;;
22652;SDS011;11493;43.344;26.226;2023-06-10T06:01:19;6.38;;;2.70;;
22652;SDS011;11493;43.344;26.226;2023-06-10T06:03:50;9.88;;;2.72;;
22652;SDS011;11493;43.344;26.226;2023-06-10T06:06:18;6.88;;;2.88;;
22652;SDS011;11493;43.344;26.226;2023-06-10T06:08:48;5.53;;;3.03;;
22652;SDS011;11493;43.344;26.226;2023-06-10T06:11:18;7.03;;;3.17;;
22652;SDS011;11493;43.344;26.226;2023-06-10T06:13:47;4.65;;;2.55;;
22652;SDS011;11493;43.344;26.226;2023-06-10T06:16:18;5.03;;;3.00;;
22652;SDS011;11493;43.344;26.226;2023-06-10T06:18:46;3.78;;;2.38;;
22652;SDS011;11493;43.344;26.226;2023-06-10T06:21:13;3.05;;;2.75;;
22652;SDS011;11493;43.344;26.226;2023-06-10T06:23:48;5.53;;;2.60;;
22652;SDS011;11493;43.344;26.226;2023-06-10T06:26:15;6.03;;;2.90;;
22652;SDS011;11493;43.344;26.226;2023-06-10T06:28:42;7.47;;;3.50;;
22652;SDS011;11493;43.344;26.226;2023-06-10T06:31:09;6.47;;;2.97;;
22652;SDS011;11493;43.344;26.226;2023-06-10T06:33:36;4.03;;;2.78;;
22652;SDS011;11493;43.344;26.226;2023-06-10T06:36:04;5.32;;;2.65;;
22652;SDS011;11493;43.344;26.226;2023-06-10T06:38:31;6.28;;;2.95;;
22652;SDS011;11493;43.344;26.226;2023-06-10T06:40:59;3.33;;;2.75;;
22652;SDS011;11493;43.344;26.226;2023-06-10T06:43:29;6.72;;;3.58;;
22652;SDS011;11493;43.344;26.226;2023-06-10T06:46:09;6.30;;;2.80;;
22652;SDS011;11493;43.344;26.226;2023-06-10T06:48:38;5.35;;;3.05;;
22652;SDS011;11493;43.344;26.226;2023-06-10T06:51:05;3.97;;;2.45;;
22652;SDS011;11493;43.344;26.226;2023-06-10T06:53:32;5.03;;;2.75;;
22652;SDS011;11493;43.344;26.226;2023-06-10T06:56:01;5.80;;;2.88;;
22652;SDS011;11493;43.344;26.226;2023-06-10T06:58:32;5.18;;;3.08;;
22652;SDS011;11493;43.344;26.226;2023-06-10T07:01:10;4.40;;;3.28;;
22652;SDS011;11493;43.344;26.226;2023-06-10T07:03:37;4.32;;;2.75;;
22652;SDS011;11493;43.344;26.226;2023-06-10T07:06:04;6.57;;;3.03;;
22652;SDS011;11493;43.344;26.226;2023-06-10T07:08:31;4.10;;;3.00;;
22652;SDS011;11493;43.344;26.226;2023-06-10T07:10:58;4.05;;;3.00;;
22652;SDS011;11493;43.344;26.226;2023-06-10T07:13:25;4.25;;;3.10;;
22652;SDS011;11493;43.344;26.226;2023-06-10T07:15:52;5.45;;;3.17;;
22652;SDS011;11493;43.344;26.226;2023-06-10T07:18:19;8.43;;;2.95;;
22652;SDS011;11493;43.344;26.226;2023-06-10T07:20:46;5.03;;;3.08;;
22652;SDS011;11493;43.344;26.226;2023-06-10T07:23:13;4.60;;;2.72;;
22652;SDS011;11493;43.344;26.226;2023-06-10T07:25:41;3.78;;;2.60;;
22652;SDS011;11493;43.344;26.226;2023-06-10T07:28:08;2.92;;;2.63;;
22652;SDS011;11493;43.344;26.226;2023-06-10T07:30:35;5.20;;;2.70;;
22652;SDS011;11493;43.344;26.226;2023-06-10T07:33:02;4.22;;;2.60;;
22652;SDS011;11493;43.344;26.226;2023-06-10T07:35:29;4.35;;;2.55;;
22652;SDS011;11493;43.344;26.226;2023-06-10T07:37:56;3.50;;;2.78;;
22652;SDS011;11493;43.344;26.226;2023-06-10T07:40:24;3.10;;;2.80;;
22652;SDS011;11493;43.344;26.226;2023-06-10T07:42:55;7.00;;;2.90;;
22652;SDS011;11493;43.344;26.226;2023-06-10T07:45:22;3.25;;;2.63;;
22652;SDS011;11493;43.344;26.226;2023-06-10T07:47:49;4.55;;;2.67;;
22652;SDS011;11493;43.344;26.226;2023-06-10T07:50:16;7.75;;;2.67;;
22652;SDS011;11493;43.344;26.226;2023-06-10T07:52:43;5.47;;;2.97;;
22652;SDS011;11493;43.344;26.226;2023-06-10T07:55:10;3.78;;;2.60;;
22652;SDS011;11493;43.344;26.226;2023-06-10T07:57:40;7.95;;;3.03;;
22652;SDS011;11493;43.344;26.226;2023-06-10T08:00:07;6.40;;;2.97;;
22652;SDS011;11493;43.344;26.226;2023-06-10T08:02:38;9.95;;;2.67;;
22652;SDS011;11493;43.344;26.226;2023-06-10T08:05:07;3.55;;;2.70;;
22652;SDS011;11493;43.344;26.226;2023-06-10T08:07:35;3.53;;;2.60;;
22652;SDS011;11493;43.344;26.226;2023-06-10T08:10:03;6.85;;;3.10;;
22652;SDS011;11493;43.344;26.226;2023-06-10T08:12:30;3.05;;;2.60;;
22652;SDS011;11493;43.344;26.226;2023-06-10T08:15:02;11.00;;;3.70;;
22652;SDS011;11493;43.344;26.226;2023-06-10T08:17:30;3.47;;;3.03;;
22652;SDS011;11493;43.344;26.226;2023-06-10T08:19:58;4.90;;;2.63;;
22652;SDS011;11493;43.344;26.226;2023-06-10T08:22:25;12.88;;;3.30;;
22652;SDS011;11493;43.344;26.226;2023-06-10T08:24:53;3.95;;;2.72;;
22652;SDS011;11493;43.344;26.226;2023-06-10T08:27:20;5.13;;;2.83;;
22652;SDS011;11493;43.344;26.226;2023-06-10T08:29:47;3.63;;;2.67;;
22652;SDS011;11493;43.344;26.226;2023-06-10T08:32:14;8.30;;;3.25;;
22652;SDS011;11493;43.344;26.226;2023-06-10T08:34:41;8.30;;;2.88;;
22652;SDS011;11493;43.344;26.226;2023-06-10T08:37:08;6.68;;;2.58;;
22652;SDS011;11493;43.344;26.226;2023-06-10T08:39:36;10.48;;;2.70;;
22652;SDS011;11493;43.344;26.226;2023-06-10T08:42:05;5.93;;;3.08;;
22652;SDS011;11493;43.344;26.226;2023-06-10T08:44:48;8.88;;;3.13;;
22652;SDS011;11493;43.344;26.226;2023-06-10T08:47:19;4.15;;;2.70;;
22652;SDS011;11493;43.344;26.226;2023-06-10T08:49:49;8.75;;;2.35;;
22652;SDS011;11493;43.344;26.226;2023-06-10T08:52:20;5.22;;;3.28;;
22652;SDS011;11493;43.344;26.226;2023-06-10T08:55:03;3.25;;;2.78;;
22652;SDS011;11493;43.344;26.226;2023-06-10T08:57:32;6.72;;;2.75;;
22652;SDS011;11493;43.344;26.226;2023-06-10T09:00:00;3.17;;;2.88;;
22652;SDS011;11493;43.344;26.226;2023-06-10T09:02:27;4.75;;;2.60;;
22652;SDS011;11493;43.344;26.226;2023-06-10T09:04:55;5.00;;;2.65;;
22652;SDS011;11493;43.344;26.226;2023-06-10T09:07:23;6.10;;;3.10;;
22652;SDS011;11493;43.344;26.226;2023-06-10T09:09:52;5.50;;;2.90;;
22652;SDS011;11493;43.344;26.226;2023-06-10T09:12:21;3.85;;;2.90;;
22652;SDS011;11493;43.344;26.226;2023-06-10T09:14:48;3.25;;;2.58;;
22652;SDS011;11493;43.344;26.226;2023-06-10T09:17:16;9.38;;;2.38;;
22652;SDS011;11493;43.344;26.226;2023-06-10T09:19:44;3.95;;;2.60;;
22652;SDS011;11493;43.344;26.226;2023-06-10T09:22:12;3.63;;;3.05;;
22652;SDS011;11493;43.344;26.226;2023-06-10T09:24:39;6.93;;;2.60;;
22652;SDS011;11493;43.344;26.226;2023-06-10T09:27:08;4.35;;;2.30;;
22652;SDS011;11493;43.344;26.226;2023-06-10T09:29:45;10.43;;;2.33;;
22652;SDS011;11493;43.344;26.226;2023-06-10T09:32:18;5.97;;;2.47;;
22652;SDS011;11493;43.344;26.226;2023-06-10T09:34:46;2.83;;;2.22;;
22652;SDS011;11493;43.344;26.226;2023-06-10T09:37:19;5.15;;;2.53;;
22652;SDS011;11493;43.344;26.226;2023-06-10T09:40:01;6.55;;;2.78;;
22652;SDS011;11493;43.344;26.226;2023-06-10T09:42:33;6.32;;;3.38;;
22652;SDS011;11493;43.344;26.226;2023-06-10T09:45:05;7.55;;;2.85;;
22652;SDS011;11493;43.344;26.226;2023-06-10T09:47:33;6.53;;;2.65;;
22652;SDS011;11493;43.344;26.226;2023-06-10T09:50:01;2.75;;;2.35;;
22652;SDS011;11493;43.344;26.226;2023-06-10T09:52:28;3.85;;;2.67;;
22652;SDS011;11493;43.344;26.226;2023-06-10T09:55:00;5.05;;;3.00;;
22652;SDS011;11493;43.344;26.226;2023-06-10T09:57:31;7.00;;;2.65;;
22652;SDS011;11493;43.344;26.226;2023-06-10T10:00:11;8.23;;;2.83;;
22652;SDS011;11493;43.344;26.226;2023-06-10T10:02:46;7.07;;;2.58;;
22652;SDS011;11493;43.344;26.226;2023-06-10T10:05:18;3.78;;;2.13;;
22652;SDS011;11493;43.344;26.226;2023-06-10T10:07:48;5.72;;;2.22;;
22652;SDS011;11493;43.344;26.226;2023-06-10T10:10:16;4.00;;;2.20;;
22652;SDS011;11493;43.344;26.226;2023-06-10T10:12:46;5.22;;;2.45;;
22652;SDS011;11493;43.344;26.226;2023-06-10T10:15:13;2.70;;;2.08;;
22652;SDS011;11493;43.344;26.226;2023-06-10T10:17:54;10.90;;;2.03;;
22652;SDS011;11493;43.344;26.226;2023-06-10T10:20:26;9.43;;;2.35;;
22652;SDS011;11493;43.344;26.226;2023-06-10T10:22:59;5.25;;;2.55;;
22652;SDS011;11493;43.344;26.226;2023-06-10T10:25:32;14.55;;;3.10;;
22652;SDS011;11493;43.344;26.226;2023-06-10T10:28:15;6.15;;;1.95;;
22652;SDS011;11493;43.344;26.226;2023-06-10T10:30:47;2.67;;;2.05;;
22652;SDS011;11493;43.344;26.226;2023-06-10T10:33:26;3.03;;;1.90;;
22652;SDS011;11493;43.344;26.226;2023-06-10T10:36:03;4.65;;;1.92;;
22652;SDS011;11493;43.344;26.226;2023-06-10T10:38:30;5.30;;;2.33;;
22652;SDS011;11493;43.344;26.226;2023-06-10T10:40:59;2.17;;;1.95;;
22652;SDS011;11493;43.344;26.226;2023-06-10T10:43:27;3.88;;;2.92;;
22652;SDS011;11493;43.344;26.226;2023-06-10T10:45:59;7.70;;;5.38;;
22652;SDS011;11493;43.344;26.226;2023-06-10T10:51:00;2.90;;;2.30;;
22652;SDS011;11493;43.344;26.226;2023-06-10T10:53:27;5.43;;;1.90;;
22652;SDS011;11493;43.344;26.226;2023-06-10T10:56:07;4.13;;;1.95;;
22652;SDS011;11493;43.344;26.226;2023-06-10T10:58:40;2.83;;;1.95;;
22652;SDS011;11493;43.344;26.226;2023-06-10T11:01:10;13.95;;;2.17;;
22652;SDS011;11493;43.344;26.226;2023-06-10T11:03:46;2.55;;;1.90;;
22652;SDS011;11493;43.344;26.226;2023-06-10T11:06:17;11.32;;;2.22;;
22652;SDS011;11493;43.344;26.226;2023-06-10T11:08:45;5.72;;;2.78;;
22652;SDS011;11493;43.344;26.226;2023-06-10T11:11:26;3.15;;;2.15;;
22652;SDS011;11493;43.344;26.226;2023-06-10T11:16:28;4.75;;;2.03;;
22652;SDS011;11493;43.344;26.226;2023-06-10T11:18:56;5.50;;;2.30;;
22652;SDS011;11493;43.344;26.226;2023-06-10T11:21:24;4.13;;;1.98;;
22652;SDS011;11493;43.344;26.226;2023-06-10T11:23:57;3.80;;;1.75;;
22652;SDS011;11493;43.344;26.226;2023-06-10T11:31:24;4.35;;;2.38;;
22652;SDS011;11493;43.344;26.226;2023-06-10T11:34:04;5.40;;;2.03;;
22652;SDS011;11493;43.344;26.226;2023-06-10T11:36:51;6.18;;;1.85;;
22652;SDS011;11493;43.344;26.226;2023-06-10T11:39:19;5.63;;;1.98;;
22652;SDS011;11493;43.344;26.226;2023-06-10T11:41:50;2.78;;;2.03;;
22652;SDS011;11493;43.344;26.226;2023-06-10T11:44:17;5.60;;;1.95;;
22652;SDS011;11493;43.344;26.226;2023-06-10T11:46:47;4.80;;;2.00;;
22652;SDS011;11493;43.344;26.226;2023-06-10T11:49:16;3.25;;;2.03;;
22652;SDS011;11493;43.344;26.226;2023-06-10T11:51:43;3.75;;;2.30;;
22652;SDS011;11493;43.344;26.226;2023-06-10T11:54:16;6.72;;;2.00;;
22652;SDS011;11493;43.344;26.226;2023-06-10T11:56:44;5.90;;;2.28;;
22652;SDS011;11493;43.344;26.226;2023-06-10T11:59:12;5.40;;;2.05;;
22652;SDS011;11493;43.344;26.226;2023-06-10T12:01:43;5.35;;;1.98;;
22652;SDS011;11493;43.344;26.226;2023-06-10T12:04:12;5.07;;;2.40;;
22652;SDS011;11493;43.344;26.226;2023-06-10T12:06:44;3.10;;;1.85;;
22652;SDS011;11493;43.344;26.226;2023-06-10T12:09:21;5.03;;;2.47;;
22652;SDS011;11493;43.344;26.226;2023-06-10T12:12:01;6.45;;;2.22;;
22652;SDS011;11493;43.344;26.226;2023-06-10T12:17:20;5.95;;;2.35;;
22652;SDS011;11493;43.344;26.226;2023-06-10T12:19:50;2.70;;;2.20;;
22652;SDS011;11493;43.344;26.226;2023-06-10T12:22:17;8.15;;;2.00;;
22652;SDS011;11493;43.344;26.226;2023-06-10T12:24:57;16.67;;;3.10;;
22652;SDS011;11493;43.344;26.226;2023-06-10T12:27:29;4.07;;;2.05;;
22652;SDS011;11493;43.344;26.226;2023-06-10T12:29:59;6.30;;;2.10;;
22652;SDS011;11493;43.344;26.226;2023-06-10T12:32:38;5.50;;;1.88;;
22652;SDS011;11493;43.344;26.226;2023-06-10T12:35:18;2.75;;;2.25;;
22652;SDS011;11493;43.344;26.226;2023-06-10T12:37:57;6.35;;;2.10;;
22652;SDS011;11493;43.344;26.226;2023-06-10T12:40:34;5.75;;;2.67;;
22652;SDS011;11493;43.344;26.226;2023-06-10T12:43:04;4.40;;;2.38;;
22652;SDS011;11493;43.344;26.226;2023-06-10T12:45:35;3.55;;;2.15;;
22652;SDS011;11493;43.344;26.226;2023-06-10T12:48:06;5.70;;;2.28;;
22652;SDS011;11493;43.344;26.226;2023-06-10T12:50:39;2.67;;;1.90;;
22652;SDS011;11493;43.344;26.226;2023-06-10T12:53:07;5.03;;;2.30;;
22652;SDS011;11493;43.344;26.226;2023-06-10T12:55:35;11.05;;;4.90;;
22652;SDS011;11493;43.344;26.226;2023-06-10T12:58:02;10.52;;;4.38;;
22652;SDS011;11493;43.344;26.226;2023-06-10T13:00:30;6.65;;;2.70;;
22652;SDS011;11493;43.344;26.226;2023-06-10T13:02:59;6.57;;;2.35;;
22652;SDS011;11493;43.344;26.226;2023-06-10T13:05:28;2.43;;;2.20;;
22652;SDS011;11493;43.344;26.226;2023-06-10T13:07:56;3.08;;;2.10;;
22652;SDS011;11493;43.344;26.226;2023-06-10T13:10:23;3.97;;;2.30;;
22652;SDS011;11493;43.344;26.226;2023-06-10T13:12:52;7.00;;;2.25;;
22652;SDS011;11493;43.344;26.226;2023-06-10T13:15:21;4.07;;;2.35;;
22652;SDS011;11493;43.344;26.226;2023-06-10T13:17:48;5.93;;;2.75;;
22652;SDS011;11493;43.344;26.226;2023-06-10T13:20:17;4.68;;;2.30;;
22652;SDS011;11493;43.344;26.226;2023-06-10T13:22:45;2.97;;;2.00;;
22652;SDS011;11493;43.344;26.226;2023-06-10T13:25:16;5.13;;;2.00;;
22652;SDS011;11493;43.344;26.226;2023-06-10T13:27:43;5.43;;;2.13;;
22652;SDS011;11493;43.344;26.226;2023-06-10T13:30:10;5.25;;;2.40;;
22652;SDS011;11493;43.344;26.226;2023-06-10T13:32:38;5.18;;;1.90;;
22652;SDS011;11493;43.344;26.226;2023-06-10T13:35:06;7.95;;;2.10;;
22652;SDS011;11493;43.344;26.226;2023-06-10T13:37:35;2.10;;;1.90;;
22652;SDS011;11493;43.344;26.226;2023-06-10T13:40:02;5.95;;;2.40;;
22652;SDS011;11493;43.344;26.226;2023-06-10T13:42:30;2.78;;;2.42;;
22652;SDS011;11493;43.344;26.226;2023-06-10T13:44:57;2.85;;;2.15;;
22652;SDS011;11493;43.344;26.226;2023-06-10T13:47:24;5.63;;;2.25;;
22652;SDS011;11493;43.344;26.226;2023-06-10T13:49:52;5.28;;;2.40;;
22652;SDS011;11493;43.344;26.226;2023-06-10T13:52:19;8.15;;;3.30;;
22652;SDS011;11493;43.344;26.226;2023-06-10T13:54:46;9.00;;;2.85;;
22652;SDS011;11493;43.344;26.226;2023-06-10T13:57:13;4.70;;;2.63;;
22652;SDS011;11493;43.344;26.226;2023-06-10T13:59:40;4.82;;;2.72;;
22652;SDS011;11493;43.344;26.226;2023-06-10T14:02:07;3.88;;;2.60;;
22652;SDS011;11493;43.344;26.226;2023-06-10T14:04:38;8.25;;;2.67;;
22652;SDS011;11493;43.344;26.226;2023-06-10T14:07:06;4.07;;;3.20;;
22652;SDS011;11493;43.344;26.226;2023-06-10T14:09:33;7.07;;;2.88;;
22652;SDS011;11493;43.344;26.226;2023-06-10T14:12:00;5.47;;;2.38;;
22652;SDS011;11493;43.344;26.226;2023-06-10T14:14:29;6.10;;;3.20;;
22652;SDS011;11493;43.344;26.226;2023-06-10T14:16:57;9.45;;;3.47;;
22652;SDS011;11493;43.344;26.226;2023-06-10T14:19:24;9.50;;;3.35;;
22652;SDS011;11493;43.344;26.226;2023-06-10T14:21:51;7.32;;;2.95;;
22652;SDS011;11493;43.344;26.226;2023-06-10T14:24:20;6.03;;;2.63;;
22652;SDS011;11493;43.344;26.226;2023-06-10T14:26:48;6.43;;;2.63;;
22652;SDS011;11493;43.344;26.226;2023-06-10T14:29:15;6.03;;;3.08;;
22652;SDS011;11493;43.344;26.226;2023-06-10T14:31:42;8.63;;;3.42;;
22652;SDS011;11493;43.344;26.226;2023-06-10T14:34:09;7.15;;;3.75;;
22652;SDS011;11493;43.344;26.226;2023-06-10T14:36:36;7.38;;;3.17;;
22652;SDS011;11493;43.344;26.226;2023-06-10T14:39:03;10.45;;;3.70;;
22652;SDS011;11493;43.344;26.226;2023-06-10T14:41:31;7.38;;;3.10;;
22652;SDS011;11493;43.344;26.226;2023-06-10T14:43:58;8.13;;;3.83;;
22652;SDS011;11493;43.344;26.226;2023-06-10T14:46:27;14.88;;;3.30;;
22652;SDS011;11493;43.344;26.226;2023-06-10T14:48:55;9.43;;;3.63;;
22652;SDS011;11493;43.344;26.226;2023-06-10T14:51:22;10.73;;;3.45;;
22652;SDS011;11493;43.344;26.226;2023-06-10T14:53:49;7.07;;;3.45;;
22652;SDS011;11493;43.344;26.226;2023-06-10T14:56:19;5.75;;;3.30;;
22652;SDS011;11493;43.344;26.226;2023-06-10T14:58:46;6.22;;;3.35;;
22652;SDS011;11493;43.344;26.226;2023-06-10T15:01:13;10.20;;;3.42;;
22652;SDS011;11493;43.344;26.226;2023-06-10T15:03:40;12.02;;;3.60;;